Flugplatz Illertissen

Für EDMI sind keine METAR/TAF Berichte vorhanden.
Es werden die Flugwettermeldungen vom Flugplatz Laupheim Airport in 16 km Entfernung angezeigt.

Bericht für ETHL

vom 07.12. um 16:20 UTC

Wind 4 kt aus 140°

Sichtweite 10 km oder mehr

gering bewölkt in 24000 ft

Temperatur 0.0°C

Taupunkt -3.0°C

Luftfeuchtigkeit 80%

Luftdruck 1010 hPa

ETHL 071620Z 14004KT 9999 FEW240 00/M03 Q1010 BLU+BLU+

Prognose für ETHL

vom 07.12. um 14:20 UTC

Zwischen 15:00 UTC und 00:00 UTC

Wind 7 kt aus 190°

Sichtweite 10 km oder mehr

keine signifikanten Wettererscheinungen

gering bewölkt in 1500 ft

aufgelockert bewölkt in 3000 ft

TAF ETHL 071420Z 0715/0724 19007KT 9999 NSW FEW015 SCT030
Impressum